Time;durP1;ratioP1;P1;durP2;ratioP2;P2;SDS_P1;SDS_P2;PMS_P1;PMS_P2;Temp;Humidity;BMP_temperature;BMP_pressure;BME280_temperature;BME280_humidity;BME280_pressure;Samples;Min_cycle;Max_cycle;Signal;HPM_P1;HPM_P2
2022/08/23 00:02:30;;;;;;;3.33;2.40;;;;;;;21.11;42.37;99575.91;12202429;19;20498;-82
2022/08/23 00:06:42;;;;;;;4.95;2.50;;;;;;;21.03;42.82;99571.09;12222817;19;20006;-83
2022/08/23 00:10:48;;;;;;;3.65;2.30;;;;;;;20.94;42.62;99568.31;12201361;19;20015;-82
2022/08/23 00:14:53;;;;;;;3.22;2.08;;;;;;;20.85;43.32;99576.69;12228047;19;20018;-82
2022/08/23 00:18:55;;;;;;;5.18;2.20;;;;;;;20.79;43.70;99571.53;12233301;19;20006;-83
2022/08/23 00:22:58;;;;;;;;;;;;;;;20.72;43.71;99572.00;12214415;19;20010;-82
2022/08/23 00:27:23;;;;;;;6.57;2.10;;;;;;;20.63;43.61;99563.56;12231109;19;19937;-82
2022/08/23 00:31:25;;;;;;;7.73;2.27;;;;;;;20.55;43.99;99567.16;12235561;19;20525;-83
2022/08/23 00:35:28;;;;;;;4.82;2.35;;;;;;;20.42;44.33;99568.88;12226892;19;20003;-82
2022/08/23 00:39:31;;;;;;;3.38;2.15;;;;;;;20.33;44.88;99564.38;12236735;19;20498;-82
2022/08/23 00:48:01;;;;;;;4.57;2.28;;;;;;;20.25;44.91;99549.19;12213939;19;20020;-82
2022/08/23 00:52:25;;;;;;;5.15;2.20;;;;;;;20.22;45.17;99547.03;12234862;19;20082;-83
2022/08/23 00:56:31;;;;;;;3.83;2.20;;;;;;;20.16;45.25;99543.53;12212377;19;20085;-82
2022/08/23 01:00:33;;;;;;;4.88;2.10;;;;;;;20.08;45.84;99549.94;12236060;19;20011;-82
2022/08/23 01:04:43;;;;;;;3.67;2.38;;;;;;;19.98;45.81;99556.59;12220631;19;20002;-82
2022/08/23 01:08:51;;;;;;;4.88;2.35;;;;;;;19.92;46.25;99555.06;12229623;19;20115;-82
2022/08/23 01:13:02;;;;;;;4.68;2.22;;;;;;;19.83;46.70;99570.97;12230094;19;20359;-82
2022/08/23 01:17:37;;;;;;;3.17;2.22;;;;;;;19.75;47.00;99568.91;12209454;19;20007;-82
2022/08/23 01:21:53;;;;;;;3.20;1.98;;;;;;;19.73;47.23;99571.22;12233559;19;20023;-82
2022/08/23 01:25:55;;;;;;;6.55;2.30;;;;;;;19.67;47.47;99576.09;12208472;19;20015;-82
2022/08/23 01:29:58;;;;;;;4.35;2.38;;;;;;;19.61;47.53;99573.72;12231206;19;20487;-82
2022/08/23 01:34:05;;;;;;;3.20;2.10;;;;;;;19.56;47.91;99586.66;12227377;19;20010;-82
2022/08/23 01:38:10;;;;;;;5.03;2.10;;;;;;;19.54;47.35;99580.56;12207804;19;20573;-81
2022/08/23 01:42:13;;;;;;;6.35;2.60;;;;;;;19.54;47.51;99575.00;12230849;19;20029;-83
2022/08/23 01:46:19;;;;;;;3.92;1.90;;;;;;;19.55;48.02;99568.25;12229802;19;20417;-81
2022/08/23 01:50:21;;;;;;;7.47;2.53;;;;;;;19.54;47.62;99562.97;12207193;19;20476;-82
2022/08/23 01:54:23;;;;;;;5.10;2.00;;;;;;;19.52;48.11;99565.25;12225427;19;20115;-82
2022/08/23 01:58:25;;;;;;;5.43;2.20;;;;;;;19.47;48.42;99574.56;12225211;19;20007;-82
2022/08/23 02:02:27;;;;;;;3.70;1.95;;;;;;;19.45;48.31;99574.06;12205796;19;20007;-81
2022/08/23 02:06:29;;;;;;;3.90;2.05;;;;;;;19.42;48.71;99579.44;12224377;19;20077;-82
2022/08/23 02:10:33;;;;;;;4.38;2.40;;;;;;;19.39;48.63;99580.91;12228641;19;20015;-81
2022/08/23 02:14:40;;;;;;;5.15;2.47;;;;;;;19.36;48.61;99575.94;12203638;19;20014;-82
2022/08/23 02:18:56;;;;;;;4.32;1.92;;;;;;;19.37;48.60;99583.22;12225781;19;20007;-81
2022/08/23 02:22:58;;;;;;;6.00;2.00;;;;;;;19.37;48.78;99594.38;12204755;19;20038;-81
2022/08/23 02:27:03;;;;;;;6.53;2.20;;;;;;;19.39;48.72;99591.25;12225307;19;20082;-81
2022/08/23 02:31:11;;;;;;;4.18;2.28;;;;;;;19.37;48.62;99588.78;12225438;19;20002;-82
2022/08/23 02:35:12;;;;;;;;;;;;;;;19.30;48.75;99596.75;12203404;19;20002;-82
2022/08/23 02:39:29;;;;;;;;;;;;;;;19.24;49.17;99598.00;12223057;19;19907;-82
2022/08/23 02:43:32;;;;;;;;;;;;;;;19.20;49.22;99605.38;12225926;19;19906;-82
2022/08/23 02:47:38;;;;;;;;;;;;;;;19.14;49.39;99610.25;12204080;19;19906;-82
2022/08/23 02:51:50;;;;;;;;;;;;;;;19.12;49.92;99601.34;12223675;19;19931;-82
2022/08/23 02:55:51;;;;;;;;;;;;;;;19.13;50.04;99601.03;12201481;19;19942;-82
2022/08/23 02:59:53;;;;;;;;;;;;;;;19.15;50.17;99603.50;12225142;19;19915;-82
2022/08/23 03:03:56;;;;;;;;;;;;;;;19.16;49.83;99607.16;12221189;19;19914;-82
2022/08/23 03:07:59;;;;;;;;;;;;;;;19.15;49.85;99608.25;12201839;19;20292;-82
2022/08/23 03:12:03;;;;;;;;;;;;;;;19.12;50.13;99604.94;12222187;19;20283;-82
2022/08/23 03:16:08;;;;;;;;;;;;;;;19.10;50.28;99607.25;12222876;19;20247;-82
2022/08/23 03:20:16;;;;;;;;;;;;;;;19.09;50.20;99607.53;12202339;19;19918;-81
2022/08/23 03:24:20;;;;;;;;;;;;;;;19.06;50.50;99614.56;12223401;19;19923;-81
2022/08/23 03:28:24;;;;;;;;;;;;;;;19.01;50.59;99614.69;12220983;19;19911;-80
2022/08/23 03:32:26;;;;;;;;;;;;;;;18.97;50.91;99608.06;12200262;19;19931;-82
2022/08/23 03:36:28;;;;;;;;;;;;;;;18.95;50.82;99615.09;12221589;19;19910;-81
2022/08/23 03:40:31;;;;;;;;;;;;;;;18.90;51.04;99614.06;12221533;19;19919;-81
2022/08/23 03:44:34;;;;;;;;;;;;;;;18.88;51.16;99615.50;12201207;19;19915;-81
2022/08/23 03:48:36;;;;;;;;;;;;;;;18.88;51.27;99621.09;12219510;19;19927;-81
2022/08/23 03:52:38;;;;;;;;;;;;;;;18.83;51.42;99612.84;12199070;19;19907;-80
2022/08/23 03:56:50;;;;;;;;;;;;;;;18.80;51.48;99624.59;12220958;19;19911;-81
2022/08/23 04:00:52;;;;;;;;;;;;;;;18.79;51.56;99629.38;12220937;19;19914;-81
2022/08/23 04:04:57;;;;;;;;;;;;;;;18.79;51.98;99629.38;12197035;19;19926;-81
2022/08/23 04:09:26;;;;;;;;;;;;;;;18.77;52.20;99633.59;12219114;19;19918;-81
2022/08/23 04:13:28;;;;;;;;;;;;;;;18.75;51.91;99639.50;12219410;19;20251;-81
2022/08/23 04:17:32;;;;;;;;;;;;;;;18.74;52.27;99634.22;12198165;19;19955;-81
2022/08/23 04:21:36;;;;;;;;;;;;;;;18.73;52.20;99641.75;12221397;19;20263;-81
2022/08/23 04:25:39;;;;;;;;;;;;;;;18.73;52.03;99647.34;12199214;19;20319;-80
2022/08/23 04:29:40;;;;;;;;;;;;;;;18.74;51.85;99649.03;12221281;19;19911;-81
2022/08/23 04:33:42;;;;;;;;;;;;;;;18.74;51.95;99646.22;12217983;19;19915;-81
2022/08/23 04:37:49;;;;;;;;;;;;;;;18.74;52.28;99649.03;12196509;19;20378;-81
2022/08/23 04:46:16;;;;;;;;;;;;;;;18.76;51.87;99663.47;12217658;19;19907;-81
2022/08/23 04:50:20;;;;;;;;;;;;;;;18.80;51.94;99663.69;12198022;19;20339;-81
2022/08/23 04:54:45;;;;;;;;;;;;;;;18.86;51.95;99670.84;12215782;19;19981;-81
2022/08/23 04:59:16;;;;;;;;;;;;;;;18.87;51.97;99664.94;12195380;19;19929;-80
2022/08/23 05:03:18;;;;;;;;;;;;;;;18.86;52.39;99671.66;12247553;19;19911;-81
2022/08/23 05:07:20;;;;;;;;;;;;;;;18.79;52.98;99679.59;12276509;19;19955;-81
2022/08/23 05:11:42;;;;;;;;;;;;;;;18.74;53.18;99685.31;12236118;19;20336;-82
2022/08/23 05:15:44;;;;;;;;;;;;;;;18.70;53.36;99687.00;12232119;19;19922;-81
2022/08/23 05:19:46;;;;;;;;;;;;;;;18.72;53.38;99692.28;12211158;19;20000;-81
2022/08/23 05:23:49;;;;;;;;;;;;;;;18.73;53.82;99696.72;12232934;19;19911;-81
2022/08/23 05:27:56;;;;;;;;;;;;;;;18.76;54.43;99702.56;12228555;19;19937;-81
2022/08/23 05:31:58;;;;;;;;;;;;;;;18.81;54.12;99705.25;12209133;19;20004;-81
2022/08/23 05:36:00;;;;;;;;;;;;;;;18.86;54.68;99707.97;12229060;19;19918;-81
2022/08/23 05:40:03;;;;;;;;;;;;;;;18.90;54.58;99719.34;12231961;19;19930;-81
2022/08/23 05:44:13;;;;;;;;;;;;;;;18.97;55.00;99724.50;12206463;19;20356;-80
2022/08/23 05:48:21;;;;;;;;;;;;;;;19.00;54.60;99727.50;12234653;19;19919;-81
2022/08/23 05:52:27;;;;;;;;;;;;;;;19.00;54.98;99741.47;12282415;19;19935;-82
2022/08/23 05:56:30;;;;;;;;;;;;;;;18.99;55.46;99731.44;12261296;19;19914;-83
2022/08/23 06:00:33;;;;;;;;;;;;;;;19.00;55.20;99735.06;12282412;19;19923;-82
2022/08/23 06:04:42;;;;;;;;;;;;;;;19.04;55.43;99744.50;12230754;19;19914;-81
2022/08/23 06:08:46;;;;;;;;;;;;;;;19.09;55.41;99748.00;12230004;19;19930;-81
2022/08/23 06:12:48;;;;;;;;;;;;;;;19.17;55.22;99749.28;12228178;19;20259;-81
2022/08/23 06:16:49;;;;;;;;;;;;;;;19.25;55.18;99747.75;12205844;19;20302;-81
2022/08/23 06:21:04;;;;;;;;;;;;;;;19.32;55.44;99753.72;12229670;19;20391;-81
2022/08/23 06:25:14;;;;;;;;;;;;;;;19.41;55.38;99759.44;12229906;19;19945;-81
2022/08/23 06:29:45;;;;;;;;;;;;;;;19.54;55.18;99755.78;12207117;19;19921;-81
2022/08/23 06:34:18;;;;;;;;;;;;;;;19.71;54.89;99766.38;12231843;19;20337;-82
2022/08/23 06:38:55;;;;;;;;;;;;;;;19.87;54.73;99758.50;12210815;19;20336;-82
2022/08/23 06:43:17;;;;;;;;;;;;;;;20.04;54.87;99767.06;12237397;19;19946;-82
2022/08/23 06:47:33;;;;;;;;;;;;;;;20.23;54.76;99764.94;12214232;19;19903;-81
2022/08/23 06:51:40;;;;;;;;;;;;;;;20.44;53.76;99768.09;12237105;19;19911;-82
2022/08/23 06:56:05;;;;;;;;;;;;;;;20.71;53.31;99777.56;12213970;19;19963;-82
2022/08/23 07:00:14;;;;;;;;;;;;;;;20.94;52.17;99773.59;12233310;19;19906;-82
2022/08/23 07:04:41;;;;;;;;;;;;;;;21.28;51.07;99769.31;12212111;19;19915;-82
2022/08/23 07:09:04;;;;;;;;;;;;;;;21.61;50.37;99777.41;12231805;19;19935;-81
2022/08/23 07:13:05;;;;;;;;;;;;;;;21.87;49.84;99785.91;12233521;19;19907;-81
2022/08/23 07:17:08;;;;;;;;;;;;;;;22.15;48.77;99785.63;12211189;19;20332;-82
2022/08/23 07:21:11;;;;;;;;;;;;;;;22.37;47.40;99784.69;12233117;19;19914;-81
2022/08/23 07:25:14;;;;;;;;;;;;;;;22.64;46.62;99787.19;12230652;19;20279;-81
2022/08/23 07:29:22;;;;;;;;;;;;;;;22.99;46.31;99787.16;12209081;19;19942;-82
2022/08/23 07:33:24;;;;;;;;;;;;;;;23.28;46.01;99791.22;12231985;19;20416;-82
2022/08/23 07:37:39;;;;;;;;;;;;;;;23.60;44.81;99790.59;12211332;19;20259;-82
2022/08/23 07:41:41;;;;;;;;;;;;;;;23.86;44.12;99792.50;12234784;19;19918;-81
2022/08/23 07:45:43;;;;;;;;;;;;;;;24.04;43.92;99794.06;12236583;19;19911;-81
2022/08/23 07:49:47;;;;;;;;;;;;;;;24.18;43.59;99788.16;12214949;19;19911;-82
2022/08/23 07:53:53;;;;;;;;;;;;;;;24.35;42.53;99795.66;12234908;19;20637;-82
2022/08/23 07:57:55;;;;;;;;;;;;;;;24.61;42.54;99794.66;12239910;19;19925;-83
2022/08/23 08:02:17;;;;;;;;;;;;;;;24.80;42.26;99797.81;12235260;19;19918;-82
2022/08/23 08:06:21;;;;;;;;;;;;;;;24.97;41.75;99797.63;12258578;19;19910;-82
2022/08/23 08:10:22;;;;;;;;;;;;;;;25.24;41.85;99798.22;12260962;19;19921;-81
2022/08/23 08:14:24;;;;;;;;;;;;;;;25.54;40.92;99806.50;12236727;19;20403;-81
2022/08/23 08:18:29;;;;;;;;;;;;;;;25.75;40.25;99807.22;12250193;19;19910;-82
2022/08/23 08:22:49;;;;;;;;;;;;;;;25.97;39.71;99800.34;12231369;19;19914;-81
2022/08/23 08:27:00;;;;;;;;;;;;;;;26.02;39.33;99807.72;12240379;19;20008;-83
2022/08/23 08:31:03;;;;;;;;;;;;;;;26.13;38.09;99808.91;12227877;19;20352;-82
2022/08/23 08:35:06;;;;;;;;;;;;;;;26.40;38.67;99815.00;12203921;19;20324;-82
2022/08/23 08:39:09;;;;;;;;;;;;;;;26.67;37.96;99819.88;12243351;19;20007;-83
2022/08/23 08:43:30;;;;;;;;;;;;;;;26.80;37.77;99824.34;12241329;19;19931;-83
2022/08/23 08:47:39;;;;;;;;;;;;;;;27.08;37.62;99820.69;12218753;19;19911;-82
2022/08/23 08:51:49;;;;;;;;;;;;;;;27.21;36.78;99825.09;12246851;19;19907;-81
2022/08/23 08:55:55;;;;;;;;;;;;;;;27.43;36.47;99820.88;12221591;19;19919;-82
2022/08/23 09:00:03;;;;;;;;;;;;;;;27.56;36.13;99823.63;12243910;19;19915;-83
2022/08/23 09:04:07;;;;;;;;;;;;;;;27.61;35.62;99823.34;12243999;19;20363;-83
2022/08/23 09:08:19;;;;;;;;;;;;;;;27.95;36.07;99824.66;12214711;19;19914;-83
2022/08/23 09:12:33;;;;;;;;;;;;;;;28.12;35.35;99817.78;12236659;19;19917;-82
2022/08/23 09:16:42;;;;;;;;;;;;;;;28.22;35.67;99816.38;12236333;19;19943;-83
2022/08/23 09:20:46;;;;;;;;;;;;;;;28.51;34.68;99820.75;12238439;19;19918;-82
2022/08/23 09:24:48;;;;;;;;;;;;;;;28.78;34.79;99816.06;12234574;19;19910;-82
2022/08/23 09:29:02;;;;;;;;;;;;;;;28.94;34.47;99811.13;12210238;19;20016;-84
2022/08/23 09:33:34;;;;;;;;;;;;;;;28.94;33.69;99798.94;12235029;19;20017;-82
2022/08/23 09:37:51;;;;;;;;;;;;;;;29.21;33.78;99806.44;12231088;19;19907;-83
2022/08/23 09:41:53;;;;;;;;;;;;;;;29.50;33.07;99807.78;12234712;19;20368;-82
2022/08/23 09:45:57;;;;;;;;;;;;;;;29.80;33.60;99798.59;12233954;19;19911;-83
2022/08/23 09:50:14;;;;;;;;;;;;;;;30.02;32.69;99799.78;12212398;19;19922;-83
2022/08/23 09:54:16;;;;;;;;;;;;;;;30.25;32.68;99799.72;12235117;19;19921;-83
2022/08/23 09:58:28;;;;;;;;;;;;;;;30.54;32.39;99802.97;12232518;19;19922;-82
2022/08/23 10:02:31;;;;;;;;;;;;;;;30.68;31.47;99794.66;12211357;19;20339;-83
2022/08/23 10:06:44;;;;;;;;;;;;;;;30.74;30.99;99795.13;12231851;19;19910;-82
2022/08/23 10:10:50;;;;;;;;;;;;;;;30.75;29.92;99803.25;12214864;19;19936;-83
2022/08/23 10:14:59;;;;;;;;;;;;;;;30.91;30.36;99790.88;12232385;19;19941;-83
2022/08/23 10:19:07;;;;;;;;;;;;;;;30.98;29.86;99786.09;12230220;19;19911;-83
2022/08/23 10:23:22;;;;;;;;;;;;;;;31.12;30.48;99776.94;12211299;19;19915;-83
2022/08/23 10:32:11;;;;;;;;;;;;;;;31.41;29.71;99765.84;12211951;19;19928;-83
2022/08/23 10:36:28;;;;;;;;;;;;;;;31.47;29.05;99761.44;12229386;19;20275;-83
2022/08/23 10:40:39;;;;;;;;;;;;;;;31.79;28.76;99765.38;12229043;19;19940;-83
2022/08/23 10:44:49;;;;;;;;;;;;;;;31.95;28.68;99767.16;12210770;19;20011;-83
2022/08/23 10:48:59;;;;;;;;;;;;;;;31.76;28.82;99769.00;12228483;19;19919;-83
2022/08/23 10:53:10;;;;;;;;;;;;;;;31.88;29.10;99775.59;12206883;19;20375;-84
2022/08/23 10:57:14;;;;;;;;;;;;;;;31.89;28.45;99763.00;12224764;19;19924;-82
2022/08/23 11:01:18;;;;;;;;;;;;;;;32.02;28.35;99761.50;12226770;19;19929;-84
2022/08/23 11:05:26;;;;;;;;;;;;;;;32.39;28.48;99755.63;12207484;19;19906;-83
2022/08/23 11:09:37;;;;;;;;;;;;;;;32.89;27.79;99755.03;12227207;19;19990;-83
2022/08/23 11:13:50;;;;;;;;;;;;;;;33.18;27.80;99746.59;12208149;19;20391;-83
2022/08/23 11:17:55;;;;;;;;;;;;;;;33.23;27.12;99749.06;12249131;19;19914;-81
2022/08/23 11:22:12;;;;;;;;;;;;;;;33.31;27.13;99748.63;12274918;19;19918;-82
2022/08/23 11:26:26;;;;;;;;;;;;;;;33.42;26.85;99745.00;12236412;19;19911;-84
2022/08/23 11:30:31;;;;;;;;;;;;;;;33.20;27.22;99738.41;12238465;19;20411;-84
2022/08/23 11:34:50;;;;;;;;;;;;;;;33.48;26.48;99735.59;12213892;19;19923;-82
2022/08/23 11:38:51;;;;;;;;;;;;;;;33.57;25.60;99733.19;12228955;19;20300;-83
2022/08/23 11:43:02;;;;;;;;;;;;;;;33.88;25.11;99730.75;12229933;19;19922;-84
2022/08/23 11:47:06;;;;;;;;;;;;;;;34.30;24.94;99733.91;12210360;19;19915;-83
2022/08/23 11:51:24;;;;;;;;;;;;;;;34.91;24.54;99732.47;12240854;19;19992;-83
2022/08/23 11:55:35;;;;;;;;;;;;;;;35.66;23.31;99722.56;12240632;19;19919;-83
2022/08/23 11:59:37;;;;;;;;;;;;;;;36.01;22.30;99723.47;12213970;19;19913;-83
2022/08/23 12:03:56;;;;;;;;;;;;;;;36.47;22.18;99716.41;12239800;19;19919;-84
2022/08/23 12:08:01;;;;;;;;;;;;;;;37.04;21.72;99709.97;12213750;19;19927;-84
2022/08/23 12:12:23;;;;;;;;;;;;;;;37.49;21.43;99717.53;12232227;19;20064;-82
2022/08/23 12:16:27;;;;;;;;;;;;;;;37.61;21.34;99714.84;12229993;19;20367;-85
2022/08/23 12:20:30;;;;;;;;;;;;;;;37.75;21.12;99701.44;12209926;19;19903;-84
2022/08/23 12:24:40;;;;;;;;;;;;;;;36.77;21.14;99712.81;12233048;19;20306;-83
2022/08/23 12:28:44;;;;;;;;;;;;;;;37.61;20.96;99708.28;12208658;19;19927;-84
2022/08/23 12:32:51;;;;;;;;;;;;;;;38.28;19.34;99711.97;12227958;19;20370;-83
2022/08/23 12:36:55;;;;;;;;;;;;;;;38.56;19.65;99709.78;12229066;19;19915;-83
2022/08/23 12:40:57;;;;;;;;;;;;;;;37.46;19.74;99707.66;12209471;19;19926;-83
2022/08/23 12:45:00;;;;;;;;;;;;;;;37.67;20.12;99705.72;12229605;19;19914;-82
2022/08/23 12:49:03;;;;;;;;;;;;;;;38.82;19.94;99702.22;12230681;19;19919;-83
2022/08/23 12:53:10;;;;;;;;;;;;;;;39.96;18.45;99697.84;12208758;19;19911;-84
2022/08/23 12:57:14;;;;;;;;;;;;;;;40.38;18.06;99689.25;12224663;19;19921;-84
2022/08/23 13:01:30;;;;;;;;;;;;;;;40.28;17.84;99700.66;12230139;19;19928;-84
2022/08/23 13:05:35;;;;;;;;;;;;;;;38.64;18.56;99699.75;12205846;19;19922;-84
2022/08/23 13:09:38;;;;;;;;;;;;;;;37.31;19.85;99689.84;12226818;19;19918;-83
2022/08/23 13:13:42;;;;;;;;;;;;;;;36.17;20.44;99686.47;12209206;19;19911;-83
2022/08/23 13:17:44;;;;;;;;;;;;;;;35.40;21.17;99683.91;12228992;19;19911;-83
2022/08/23 13:21:46;;;;;;;;;;;;;;;35.17;21.33;99681.63;12227802;19;19950;-82
2022/08/23 13:25:48;;;;;;;;;;;;;;;36.06;20.87;99677.16;12214071;19;19911;-84
2022/08/23 13:30:00;;;;;;;;;;;;;;;36.87;20.19;99679.44;12235520;19;19922;-83
2022/08/23 13:34:01;;;;;;;;;;;;;;;36.56;20.38;99684.34;12235594;19;19916;-83
2022/08/23 13:38:06;;;;;;;;;;;;;;;37.70;19.85;99688.41;12215052;19;19911;-83
2022/08/23 13:42:09;;;;;;;;;;;;;;;38.39;19.13;99682.16;12238734;19;19911;-84
2022/08/23 13:46:21;;;;;;;;;;;;;;;39.25;18.63;99675.31;12235240;19;19991;-84
2022/08/23 13:50:25;;;;;;;;;;;;;;;38.93;18.71;99670.31;12215885;19;19962;-84
2022/08/23 13:54:28;;;;;;;;;;;;;;;38.01;19.08;99663.19;12233867;19;19911;-84
2022/08/23 13:58:31;;;;;;;;;;;;;;;36.76;20.13;99659.47;12235147;19;19907;-83
2022/08/23 14:02:32;;;;;;;;;;;;;;;37.15;20.18;99669.59;12215573;19;19906;-83
2022/08/23 14:06:34;;;;;;;;;;;;;;;37.21;20.06;99669.91;12235153;19;20325;-83
2022/08/23 14:10:36;;;;;;;;;;;;;;;37.14;19.84;99667.97;12227440;19;19911;-84
2022/08/23 14:14:38;;;;;;;;;;;;;;;37.21;19.98;99662.09;12231121;19;19931;-84
2022/08/23 14:18:41;;;;;;;;;;;;;;;37.16;20.12;99654.00;12230485;19;19911;-84
2022/08/23 14:23:02;;;;;;;;;;;;;;;36.82;20.44;99651.19;12210569;19;20288;-85
2022/08/23 14:27:13;;;;;;;;;;;;;;;36.99;20.52;99661.59;12228290;19;19911;-84
2022/08/23 14:31:14;;;;;;;;;;;;;;;37.07;20.03;99660.28;12233844;19;19931;-83
2022/08/23 14:35:16;;;;;;;;;;;;;;;36.77;20.30;99654.53;12209111;19;19914;-83
2022/08/23 14:39:21;;;;;;;;;;;;;;;35.89;20.40;99663.81;12228712;19;19915;-83
2022/08/23 14:43:22;;;;;;;;;;;;;;;35.13;20.97;99663.63;12231113;19;20352;-83
2022/08/23 14:47:27;;;;;;;;;;;;;;;35.36;21.14;99643.81;12209132;19;19907;-84
2022/08/23 14:51:31;;;;;;;;;;;;;;;35.47;21.08;99646.59;12229266;19;20405;-84
2022/08/23 14:55:32;;;;;;;;;;;;;;;35.98;21.30;99649.78;12227674;19;19918;-83
2022/08/23 14:59:34;;;;;;;;;;;;;;;36.32;20.46;99652.69;12207826;19;19986;-83
2022/08/23 15:03:35;;;;;;;;;;;;;;;36.15;20.45;99645.13;12230552;19;19974;-83
2022/08/23 15:07:37;;;;;;;;;;;;;;;35.34;21.20;99646.28;12208956;19;19911;-83
2022/08/23 15:11:39;;;;;;;;;;;;;;;34.87;21.68;99642.94;12229624;19;19931;-82
2022/08/23 15:16:00;;;;;;;;;;;;;;;34.72;21.90;99649.19;12227323;19;19911;-83
2022/08/23 15:20:03;;;;;;;;;;;;;;;34.60;21.86;99641.91;12206248;19;19960;-83
2022/08/23 15:24:04;;;;;;;;;;;;;;;34.58;21.79;99642.31;12226995;19;20404;-84
2022/08/23 15:28:08;;;;;;;;;;;;;;;34.57;21.73;99645.59;12227190;19;19978;-83
2022/08/23 15:32:13;;;;;;;;;;;;;;;34.37;21.98;99639.53;12205981;19;19913;-84
2022/08/23 15:36:22;;;;;;;;;;;;;;;34.19;22.17;99633.88;12241921;19;19903;-84
2022/08/23 15:40:24;;;;;;;;;;;;;;;33.86;22.70;99640.91;12244518;19;19911;-81
2022/08/23 15:44:26;;;;;;;;;;;;;;;33.24;23.19;99625.06;12210937;19;19907;-82
2022/08/23 15:48:31;;;;;;;;;;;;;;;33.30;23.17;99624.22;12233515;19;19914;-84
2022/08/23 15:52:32;;;;;;;;;;;;;;;33.30;23.18;99634.84;12238484;19;20284;-83
2022/08/23 15:56:36;;;;;;;;;;;;;;;32.98;23.12;99629.94;12210291;19;19911;-84
2022/08/23 16:00:38;;;;;;;;;;;;;;;32.81;23.54;99624.97;12233620;19;19915;-84
2022/08/23 16:04:39;;;;;;;;;;;;;;;32.95;23.37;99636.41;12209653;19;19911;-83
2022/08/23 16:08:43;;;;;;;;;;;;;;;33.07;23.60;99626.66;12229206;19;19907;-83
2022/08/23 16:12:44;;;;;;;;;;;;;;;32.84;23.94;99627.84;12228158;19;19947;-84
2022/08/23 16:16:47;;;;;;;;;;;;;;;32.96;23.46;99632.34;12205728;19;20419;-84
2022/08/23 16:20:48;;;;;;;;;;;;;;;33.30;23.49;99632.78;12225842;19;19934;-83
2022/08/23 16:24:55;;;;;;;;;;;;;;;33.15;23.27;99621.78;12227611;19;19914;-84
2022/08/23 16:28:57;;;;;;;;;;;;;;;32.89;23.71;99627.44;12202236;19;19921;-84
2022/08/23 16:33:00;;;;;;;;;;;;;;;32.68;23.45;99622.50;12233916;19;19948;-83
2022/08/23 16:37:04;;;;;;;;;;;;;;;32.55;23.96;99621.28;12227236;19;19911;-83
2022/08/23 16:41:06;;;;;;;;;;;;;;;32.41;23.93;99627.72;12211276;19;19919;-83
2022/08/23 16:45:08;;;;;;;;;;;;;;;32.26;23.97;99628.88;12222669;19;19910;-83
2022/08/23 16:49:11;;;;;;;;;;;;;;;32.12;24.04;99635.31;12222681;19;19918;-83
2022/08/23 16:53:12;;;;;;;;;;;;;;;31.98;24.47;99633.25;12202922;19;19911;-83
2022/08/23 16:57:16;;;;;;;;;;;;;;;31.87;24.40;99635.19;12260009;19;19907;-81
2022/08/23 17:01:21;;;;;;;;;;;;;;;31.70;24.86;99638.75;12285840;19;19907;-82
2022/08/23 17:05:23;;;;;;;;;;;;;;;31.68;24.39;99641.16;12262664;19;19934;-81
2022/08/23 17:09:25;;;;;;;;;;;;;;;31.62;24.59;99631.34;12283423;19;19976;-81
2022/08/23 17:13:26;;;;;;;;;;;;;;;31.65;24.81;99630.56;12253661;19;19907;-82
2022/08/23 17:17:29;;;;;;;;;;;;;;;31.60;25.15;99631.78;12224482;19;19914;-84
2022/08/23 17:21:30;;;;;;;;;;;;;;;31.54;24.90;99645.56;12239389;19;20344;-82
2022/08/23 17:25:33;;;;;;;;;;;;;;;31.37;25.14;99645.44;12235259;19;19915;-83
2022/08/23 17:29:34;;;;;;;;;;;;;;;31.21;24.81;99649.34;12213629;19;19914;-83
2022/08/23 17:33:38;;;;;;;;;;;;;;;30.96;25.29;99645.44;12238517;19;19911;-81
2022/08/23 17:37:40;;;;;;;;;;;;;;;30.87;25.54;99652.25;12260426;19;19943;-81
2022/08/23 17:41:42;;;;;;;;;;;;;;;31.11;25.65;99655.75;12281635;19;19911;-83
2022/08/23 17:45:47;;;;;;;;;;;;;;;30.88;25.27;99667.31;12242111;19;20398;-83
2022/08/23 17:49:49;;;;;;;;;;;;;;;30.73;25.38;99662.66;12217822;19;19922;-84
2022/08/23 17:53:50;;;;;;;;;;;;;;;30.48;25.80;99662.38;12233518;19;19915;-83
2022/08/23 17:57:52;;;;;;;;;;;;;;;30.10;26.57;99670.81;12231636;19;19919;-83
2022/08/23 18:02:04;;;;;;;;;;;;;;;29.69;26.97;99669.81;12210961;19;19922;-83
2022/08/23 18:06:06;;;;;;;;;;;;;;;29.29;27.17;99679.69;12231813;19;19911;-84
2022/08/23 18:10:17;;;;;;;;;;;;;;;28.95;27.95;99678.66;12228280;19;19942;-84
2022/08/23 18:14:19;;;;;;;;;;;;;;;28.63;28.19;99688.16;12214350;19;19913;-82
2022/08/23 18:18:20;;;;;;;;;;;;;;;28.32;28.63;99691.97;12235704;19;19914;-83
2022/08/23 18:22:22;;;;;;;;;;;;;;;28.03;28.96;99696.19;12233522;19;19907;-83
2022/08/23 18:30:49;;;;;;;;;;;;;;;27.48;29.69;99706.56;12236014;19;19924;-83
2022/08/23 18:34:51;;;;;;;;;;;;;;;27.23;29.85;99709.59;12209491;19;19915;-83
2022/08/23 18:38:52;;;;;;;;;;;;;;;27.02;30.51;99712.66;12231892;19;19960;-83
2022/08/23 18:42:54;;;;;;;;;;;;;;;26.82;30.75;99714.53;12233683;19;19920;-83
2022/08/23 18:46:56;;;;;;;;;;;;;;;26.62;30.73;99718.38;12211994;19;19928;-83
2022/08/23 18:50:58;;;;;;;;;;;;;;;26.44;30.96;99719.84;12233106;19;19951;-83
2022/08/23 18:54:59;;;;;;;;;;;;;;;26.28;31.25;99726.25;12229813;19;19918;-84
2022/08/23 18:59:01;;;;;;;;;;;;;;;26.16;31.54;99733.94;12208372;19;19914;-81
2022/08/23 19:03:04;;;;;;;;;;;;;;;26.03;31.74;99738.81;12233872;19;20328;-81
2022/08/23 19:07:07;;;;;;;;;;;;;;;25.92;32.13;99746.94;12240353;19;19931;-81
2022/08/23 19:11:08;;;;;;;;;;;;;;;25.81;31.83;99748.56;12215293;19;19911;-83
2022/08/23 19:15:10;;;;;;;;;;;;;;;25.71;32.19;99749.03;12230864;19;20360;-82
2022/08/23 19:19:12;;;;;;;;;;;;;;;25.61;32.71;99758.78;12228877;19;20403;-82
2022/08/23 19:23:13;;;;;;;;;;;;;;;25.50;32.65;99764.06;12208404;19;19915;-83
2022/08/23 19:27:15;;;;;;;;;;;;;;;25.41;32.63;99767.00;12223353;19;19907;-82
2022/08/23 19:31:17;;;;;;;;;;;;;;;25.31;33.10;99761.81;12230647;19;20003;-83
2022/08/23 19:35:19;;;;;;;;;;;;;;;25.23;32.85;99768.38;12208726;19;19915;-82
2022/08/23 19:39:23;;;;;;;;;;;;;;;25.14;33.05;99762.03;12231156;19;19918;-84
2022/08/23 19:43:25;;;;;;;;;;;;;;;25.05;33.47;99764.91;12231713;19;20024;-86
2022/08/23 19:47:28;;;;;;;;;;;;;;;24.98;33.10;99764.63;12206151;19;19935;-84
2022/08/23 19:51:32;;;;;;;;;;;;;;;24.91;33.45;99765.22;12234100;19;19934;-82
2022/08/23 19:55:36;;;;;;;;;;;;;;;24.84;33.83;99770.59;12231508;19;19927;-82
2022/08/23 19:59:39;;;;;;;;;;;;;;;24.76;33.98;99765.84;12208971;19;19915;-83
2022/08/23 20:03:40;;;;;;;;;;;;;;;24.69;34.09;99776.84;12231477;19;19915;-82
2022/08/23 20:07:42;;;;;;;;;;;;;;;24.63;34.19;99772.59;12212307;19;19915;-82
2022/08/23 20:11:44;;;;;;;;;;;;;;;24.57;34.26;99783.28;12229177;19;19911;-82
2022/08/23 20:15:45;;;;;;;;;;;;;;;24.55;34.44;99786.41;12226154;19;19971;-82
2022/08/23 20:19:47;;;;;;;;;;;;;;;24.55;34.40;99780.78;12203596;19;19916;-82
2022/08/23 20:24:02;;;;;;;;;;;;;;;24.54;34.65;99787.59;12227725;19;20324;-82
2022/08/23 20:28:06;;;;;;;;;;;;;;;24.52;34.72;99786.28;12225908;19;19911;-83
2022/08/23 20:32:09;;;;;;;;;;;;;;;24.52;35.10;99787.13;12208636;19;20244;-82
2022/08/23 20:36:11;;;;;;;;;;;;;;;24.51;35.11;99785.47;12235680;19;19911;-83
2022/08/23 20:40:13;;;;;;;;;;;;;;;24.51;35.38;99790.25;12236622;19;20336;-82
2022/08/23 20:44:15;;;;;;;;;;;;;;;24.50;35.26;99788.63;12217904;19;19907;-83
2022/08/23 20:48:17;;;;;;;;;;;;;;;24.46;35.22;99787.66;12235958;19;19910;-82
2022/08/23 20:52:19;;;;;;;;;;;;;;;24.41;35.15;99790.66;12236714;19;20276;-82
2022/08/23 20:56:22;;;;;;;;;;;;;;;24.33;35.54;99787.56;12211971;19;20385;-83
2022/08/23 21:00:23;;;;;;;;;;;;;;;24.25;35.65;99794.09;12235221;19;19911;-82
2022/08/23 21:04:25;;;;;;;;;;;;;;;24.22;35.76;99791.13;12239344;19;19930;-82
2022/08/23 21:08:31;;;;;;;;;;;;;;;24.20;35.90;99791.47;12217648;19;19911;-82